ADDS TAF Board (Experimental) INFO Settings

IDs: Format: Expanded Condensed

KJFK - New York/Kennedy Int, NY, US

Issued at 1728 UTC 28 Feb 2015
Updated at: 1915 UTC 28 Feb 2015
Time1851Z 28/20Z 28/21Z 28/22Z 28/23Z 01/00Z 01/01Z 01/02Z 01/03Z 01/04Z 01/05Z 01/06Z 01/07Z 01/08Z
Type OBS PRVL PRVL PRVL PRVL PRVL PRVL PRVL PRVL PRVL PRVL PRVL PRVL PRVL
VIS 10 >6 >6 >6 >6 >6 >6 >6 >6 >6 >6 >6 >6 >6
CIG -- -- -- -- -- -- -- -- -- -- -- -- -- 100
Cover FEW SCT SCT SCT SCT SCT SCT SCT SCT SCT SCT SCT SCT BKN
FltCat VFR VFR VFR VFR VFR VFR VFR VFR VFR VFR VFR VFR VFR VFR
WX -- -- -- -- -- -- -- -- -- -- -- -- -- --
WDir 240 VRB VRB VRB VRB VRB VRB VRB VRB VRB VRB VRB VRB VRB
WSpd 5 4 4 4 4 4 4 4 4 4 4 4 4 3
WGst -- -- -- -- -- -- -- -- -- -- -- -- -- --
R04/22
XWnd 2 VRB VRB VRB VRB VRB VRB VRB VRB VRB VRB VRB VRB VRB
HWnd -4 VRB VRB VRB VRB VRB VRB VRB VRB VRB VRB VRB VRB VRB
R13/31
XWnd -4 VRB VRB VRB VRB VRB VRB VRB VRB VRB VRB VRB VRB VRB
HWnd -2 VRB VRB VRB VRB VRB VRB VRB VRB VRB VRB VRB VRB VRB

NOTE: TEMPO conditions in [brackets]. Keep in mind TEMPO conditions might be better (lower impact) than prevailing conditions.

Raw TAF
KJFK 281728Z 2818/0124 VRB04KT P6SM SCT250
  FM010800 VRB03KT P6SM BKN100
  FM011100 VRB03KT P6SM OVC070
  FM011400 17005KT 4SM -SN SCT025 OVC040
  FM011600 18006KT 2SM -SN OVC015


Raw METAR
KJFK 281851Z 24005KT 10SM FEW250 M03/M16 A3078 RMK AO2 SLP421 T10331156 $
KJFK 281751Z 24008KT 10SM SCT250 M03/M16 A3080 RMK AO2 SLP429 4/001 T10331156 11033 21089 58010 $
KJFK 281651Z 30003KT 10SM BKN260 M04/M18 A3083 RMK AO2 SLP439 T10391183 $

METAR Board
Radar Display
Forecast Discussion

TAF Board Legend

Potential Impact
Threat None Slight Moderate High
Visibility (sm) ≥5.1 5.1>X≥3 3>X≥1 <1
Ceiling (100 ft) ≥30.1 30.1>X≥10 10>X≥5 <5
Wind Speed (kt) <10 10≤X<20 20≤X<30 ≥30
Wind Gust (kt) <15 15≤X<25 25≤X<35 ≥35
Weather No Wx Reported VCTS,-TS,-FZRA,SN TS,FZRA +TS,+FZRA,+SN